createdAt,value
2022-09-18T00:01:15.095Z,0.63
2022-09-18T00:03:59.474Z,0.55
2022-09-18T00:06:45.323Z,0.60
2022-09-18T00:09:28.133Z,0.50
2022-09-18T00:12:11.474Z,0.63
2022-09-18T00:14:54.554Z,0.40
2022-09-18T00:17:38.445Z,0.60
2022-09-18T00:20:21.354Z,0.70
2022-09-18T00:23:05.604Z,0.45
2022-09-18T00:25:48.428Z,0.57
2022-09-18T00:28:31.221Z,0.57
2022-09-18T00:31:16.136Z,0.50
2022-09-18T00:34:00.251Z,0.55
2022-09-18T00:36:43.887Z,0.70
2022-09-18T00:39:28.975Z,0.57
2022-09-18T00:42:13.259Z,0.70
2022-09-18T00:44:56.103Z,0.60
2022-09-18T00:47:45.799Z,0.98
2022-09-18T00:50:28.817Z,0.90
2022-09-18T00:53:12.339Z,0.60
2022-09-18T00:55:58.641Z,0.70
2022-09-18T00:58:42.164Z,0.75
2022-09-18T01:01:26.389Z,0.50
2022-09-18T01:04:12.822Z,0.50
2022-09-18T01:07:04.919Z,0.70
2022-09-18T01:09:59.440Z,0.70
2022-09-18T01:12:51.726Z,0.80
2022-09-18T01:15:42.492Z,0.93
2022-09-18T01:18:36.038Z,0.70
2022-09-18T01:21:24.223Z,0.68
2022-09-18T01:24:35.340Z,0.63
2022-09-18T01:27:27.238Z,0.77
2022-09-18T01:30:13.786Z,0.50
2022-09-18T01:33:00.761Z,0.80
2022-09-18T01:35:50.897Z,1.08
2022-09-18T01:38:38.400Z,0.60
2022-09-18T01:41:25.710Z,0.75
2022-09-18T01:44:14.197Z,0.70
2022-09-18T01:47:00.674Z,0.40
2022-09-18T01:49:49.492Z,0.70
2022-09-18T01:52:36.801Z,0.75
2022-09-18T01:55:23.887Z,0.90
2022-09-18T01:58:10.850Z,0.68
2022-09-18T02:00:56.963Z,0.77
2022-09-18T02:03:47.655Z,0.98
2022-09-18T02:06:35.767Z,0.63
2022-09-18T02:09:19.310Z,0.70
2022-09-18T02:12:07.141Z,0.60
2022-09-18T02:14:55.080Z,0.80
2022-09-18T02:17:57.998Z,0.63
2022-09-18T02:20:53.290Z,0.40
2022-09-18T02:23:38.107Z,0.60
2022-09-18T02:26:22.533Z,0.40
2022-09-18T02:29:08.705Z,0.60
2022-09-18T02:31:51.981Z,0.50
2022-09-18T02:34:35.519Z,0.60
2022-09-18T02:37:36.051Z,0.47
2022-09-18T02:40:39.090Z,0.70
2022-09-18T02:43:38.294Z,0.40
2022-09-18T02:46:27.721Z,0.60
2022-09-18T02:49:14.506Z,0.45
2022-09-18T02:52:05.478Z,0.60
2022-09-18T02:54:56.636Z,0.47
2022-09-18T02:57:45.152Z,0.60
2022-09-18T03:00:31.969Z,0.40
2022-09-18T03:03:20.894Z,1.05
2022-09-18T03:06:10.885Z,0.63
2022-09-18T03:08:54.211Z,0.60
2022-09-18T03:11:38.434Z,0.65
2022-09-18T03:14:21.578Z,0.60
2022-09-18T03:17:04.538Z,0.60
2022-09-18T03:19:48.509Z,0.70
2022-09-18T03:22:31.385Z,0.60
2022-09-18T03:25:14.491Z,0.60
2022-09-18T03:27:59.389Z,0.50
2022-09-18T03:30:50.987Z,0.60
2022-09-18T03:33:35.198Z,0.60
2022-09-18T03:36:18.410Z,0.70
2022-09-18T03:39:01.339Z,0.80
2022-09-18T03:41:45.834Z,0.60
2022-09-18T03:44:30.042Z,0.70
2022-09-18T03:47:15.304Z,0.65
2022-09-18T03:49:58.213Z,0.43
2022-09-18T03:52:41.071Z,0.70
2022-09-18T03:55:53.545Z,0.68
2022-09-18T03:58:56.357Z,0.68
2022-09-18T04:01:59.432Z,0.73
2022-09-18T04:04:42.323Z,0.70
2022-09-18T04:07:54.370Z,0.57
2022-09-18T04:10:55.865Z,0.60
2022-09-18T04:13:41.417Z,0.60
2022-09-18T04:16:30.523Z,0.63
2022-09-18T04:19:14.760Z,0.80
2022-09-18T04:21:57.611Z,0.55
2022-09-18T04:24:40.930Z,0.52
2022-09-18T04:27:23.914Z,0.55
2022-09-18T04:30:08.376Z,0.63
2022-09-18T22:57:37.131Z,0.40
2022-09-18T23:00:20.054Z,0.40
2022-09-18T23:03:02.968Z,0.50
2022-09-18T23:05:47.043Z,0.40
2022-09-18T23:08:31.926Z,0.40
2022-09-18T23:11:16.337Z,0.50
2022-09-18T23:14:02.070Z,0.45
2022-09-18T23:16:45.247Z,0.50
2022-09-18T23:19:29.811Z,0.30
2022-09-18T23:22:12.586Z,0.40
2022-09-18T23:24:55.454Z,0.30
2022-09-18T23:27:38.454Z,0.50
2022-09-18T23:30:22.553Z,0.28
2022-09-18T23:33:05.538Z,0.20
2022-09-18T23:35:48.431Z,0.20
2022-09-18T23:38:31.232Z,0.17
2022-09-18T23:41:16.333Z,0.03
2022-09-18T23:43:59.105Z,0.00
2022-09-18T23:46:44.342Z,0.10
2022-09-18T23:49:28.083Z,0.00
2022-09-18T23:52:10.907Z,0.10
2022-09-18T23:54:53.766Z,0.03
2022-09-18T23:57:36.927Z,0.05
